Time;durP1;ratioP1;P1;durP2;ratioP2;P2;SDS_P1;SDS_P2;PMS_P1;PMS_P2;Temp;Humidity;BMP_temperature;BMP_pressure;BME280_temperature;BME280_humidity;BME280_pressure;Samples;Min_cycle;Max_cycle;Signal;HPM_P1;HPM_P2
2022/09/07 00:00:49;;;;;;;;;;;16.20;99.90;;;;;;4921853;29;19918;-74
2022/09/07 00:03:15;;;;;;;;;;;16.30;99.90;;;;;;4922503;29;19941;-74
2022/09/07 00:05:42;;;;;;;;;;;16.30;99.90;;;;;;4919741;29;20180;-74
2022/09/07 00:08:07;;;;;;;;;;;16.40;99.90;;;;;;4924576;29;19915;-74
2022/09/07 00:10:33;;;;;;;;;;;16.50;99.90;;;;;;4921455;29;19929;-74
2022/09/07 00:12:58;;;;;;;;;;;16.50;99.90;;;;;;4924639;29;20400;-74
2022/09/07 00:15:24;;;;;;;;;;;16.50;99.90;;;;;;4905939;29;20371;-74
2022/09/07 00:17:49;;;;;;;;;;;16.50;99.90;;;;;;4911509;29;20015;-73
2022/09/07 00:20:15;;;;;;;;;;;16.50;99.90;;;;;;4920808;29;19933;-74
2022/09/07 00:22:40;;;;;;;;;;;16.60;99.90;;;;;;4924263;29;20002;-74
2022/09/07 00:25:06;;;;;;;;;;;16.60;99.90;;;;;;4922916;29;20399;-74
2022/09/07 00:27:31;;;;;;;;;;;16.70;99.90;;;;;;4901895;29;19919;-75
2022/09/07 00:29:57;;;;;;;;;;;16.70;99.90;;;;;;4898843;29;20565;-73
2022/09/07 00:32:22;;;;;;;;;;;16.80;99.90;;;;;;4919724;29;19930;-74
2022/09/07 00:34:49;;;;;;;;;;;16.60;99.90;;;;;;4903951;29;19926;-74
2022/09/07 00:37:14;;;;;;;;;;;16.60;99.90;;;;;;4898265;29;19930;-74
2022/09/07 00:39:40;;;;;;;;;;;16.60;99.90;;;;;;4923138;29;19915;-74
2022/09/07 00:42:05;;;;;;;;;;;16.60;99.90;;;;;;4914769;29;19982;-74
2022/09/07 00:44:43;;;;;;;;;;;16.60;99.90;;;;;;4922678;29;20418;-74
2022/09/07 00:47:11;;;;;;;;;;;16.60;99.90;;;;;;4921675;29;20461;-74
2022/09/07 00:49:38;;;;;;;;;;;16.70;99.90;;;;;;4922760;29;20332;-74
2022/09/07 00:52:04;;;;;;;;;;;16.70;99.90;;;;;;4923059;29;19962;-74
2022/09/07 00:54:32;;;;;;;;;;;16.70;99.90;;;;;;4920963;29;20052;-75
2022/09/07 00:56:58;;;;;;;;;;;16.60;99.90;;;;;;4900806;29;19998;-74
2022/09/07 00:59:25;;;;;;;;;;;16.70;99.90;;;;;;4919724;29;20010;-74
2022/09/07 01:01:51;;;;;;;;;;;16.70;99.90;;;;;;4919025;29;20302;-74
2022/09/07 01:04:17;;;;;;;;;;;16.90;99.90;;;;;;4917810;29;19925;-75
2022/09/07 01:06:43;;;;;;;;;;;16.90;99.90;;;;;;4907449;29;20446;-75
2022/09/07 01:09:10;;;;;;;;;;;17.00;99.90;;;;;;4904231;29;19927;-73
2022/09/07 01:11:36;;;;;;;;;;;17.00;99.90;;;;;;4921936;29;19915;-74
2022/09/07 01:14:04;;;;;;;;;;;17.00;99.90;;;;;;4905405;29;20456;-74
2022/09/07 01:16:48;;;;;;;;;;;16.90;99.90;;;;;;4922699;29;19919;-73
2022/09/07 01:19:43;;;;;;;;;;;16.90;99.90;;;;;;4907338;29;19919;-74
2022/09/07 01:22:11;;;;;;;;;;;16.90;99.90;;;;;;4863164;29;20395;-75
2022/09/07 01:24:37;;;;;;;;;;;17.00;99.90;;;;;;4922441;29;19925;-74
2022/09/07 01:27:02;;;;;;;;;;;17.00;99.90;;;;;;4904811;29;19922;-76
2022/09/07 01:29:30;;;;;;;;;;;17.00;99.90;;;;;;4921974;29;20421;-74
2022/09/07 01:31:56;;;;;;;;;;;17.00;99.90;;;;;;4935681;29;19972;-75
2022/09/07 01:34:23;;;;;;;;;;;17.00;99.90;;;;;;4917358;29;19919;-75
2022/09/07 01:36:58;;;;;;;;;;;17.00;99.90;;;;;;4902359;29;19926;-75
2022/09/07 01:39:37;;;;;;;;;;;17.10;99.90;;;;;;4916146;29;19919;-75
2022/09/07 01:42:06;;;;;;;;;;;17.10;99.90;;;;;;4919310;29;19919;-73
2022/09/07 01:44:45;;;;;;;;;;;17.10;99.90;;;;;;4921554;29;19915;-74
2022/09/07 01:47:20;;;;;;;;;;;17.20;99.90;;;;;;4921097;29;19926;-75
2022/09/07 01:49:46;;;;;;;;;;;17.20;99.90;;;;;;4922083;29;19974;-75
2022/09/07 01:52:30;;;;;;;;;;;17.20;99.90;;;;;;4920683;29;19935;-75
2022/09/07 01:55:04;;;;;;;;;;;17.20;99.90;;;;;;4895892;29;19942;-74
2022/09/07 01:57:35;;;;;;;;;;;17.20;99.90;;;;;;4920893;29;19946;-74
2022/09/07 02:00:05;;;;;;;;;;;17.20;99.90;;;;;;4917601;29;19979;-74
2022/09/07 02:02:34;;;;;;;;;;;17.30;99.90;;;;;;4911694;29;19923;-75
2022/09/07 02:05:08;;;;;;;;;;;17.30;99.90;;;;;;4916445;29;19926;-75
2022/09/07 02:07:35;;;;;;;;;;;17.30;99.90;;;;;;4919795;29;20577;-75
2022/09/07 02:10:07;;;;;;;;;;;17.30;99.90;;;;;;4895819;29;19951;-74
2022/09/07 02:12:35;;;;;;;;;;;17.40;99.90;;;;;;4915268;29;19985;-73
2022/09/07 02:15:04;;;;;;;;;;;17.40;99.90;;;;;;4907627;29;20306;-72
2022/09/07 02:17:35;;;;;;;;;;;17.40;99.90;;;;;;4901964;29;20576;-73
2022/09/07 02:20:07;;;;;;;;;;;17.50;99.90;;;;;;4888611;29;19922;-73
2022/09/07 02:22:37;;;;;;;;;;;17.50;99.90;;;;;;4916925;29;19919;-74
2022/09/07 02:25:05;;;;;;;;;;;17.50;99.90;;;;;;4919928;29;19919;-74
2022/09/07 02:27:45;;;;;;;;;;;17.50;99.90;;;;;;4916842;29;20591;-73
2022/09/07 02:30:11;;;;;;;;;;;17.40;99.90;;;;;;4912826;29;20421;-73
2022/09/07 02:32:36;;;;;;;;;;;17.40;99.90;;;;;;4913531;29;20120;-73
2022/09/07 02:35:02;;;;;;;;;;;17.40;99.90;;;;;;4913483;29;19925;-73
2022/09/07 02:37:28;;;;;;;;;;;17.40;99.90;;;;;;4911640;29;19925;-73
2022/09/07 02:39:53;;;;;;;;;;;17.40;99.90;;;;;;4919623;29;20272;-72
2022/09/07 02:42:19;;;;;;;;;;;17.40;99.90;;;;;;4908769;29;19915;-73
2022/09/07 02:44:45;;;;;;;;;;;17.30;99.90;;;;;;4920991;29;19925;-75
2022/09/07 02:47:26;;;;;;;;;;;17.20;99.90;;;;;;4925031;29;19923;-73
2022/09/07 02:49:57;;;;;;;;;;;17.20;99.90;;;;;;4923512;29;19919;-75
2022/09/07 02:52:29;;;;;;;;;;;17.20;99.90;;;;;;4923512;29;19926;-75
2022/09/07 02:55:18;;;;;;;;;;;17.20;99.90;;;;;;4924411;29;19919;-72
2022/09/07 02:57:46;;;;;;;;;;;17.20;99.90;;;;;;4924533;29;19915;-71
2022/09/07 03:00:17;;;;;;;;;;;17.30;99.90;;;;;;4923288;29;20585;-72
2022/09/07 03:02:55;;;;;;;;;;;17.40;99.90;;;;;;4925237;29;20426;-76
2022/09/07 03:05:47;;;;;;;;;;;17.50;99.90;;;;;;4923545;29;20017;-72
2022/09/07 03:08:18;;;;;;;;;;;17.50;99.90;;;;;;4901891;29;19977;-76
2022/09/07 03:10:44;;;;;;;;;;;17.50;99.90;;;;;;4910530;29;20562;-76
2022/09/07 03:13:23;;;;;;;;;;;17.50;99.90;;;;;;4910855;29;19919;-73
2022/09/07 03:15:49;;;;;;;;;;;17.50;99.90;;;;;;4893161;29;19919;-75
2022/09/07 03:18:14;;;;;;;;;;;17.40;99.90;;;;;;4910261;29;20027;-76
2022/09/07 03:20:40;;;;;;;;;;;17.40;99.90;;;;;;4912989;29;19945;-75
2022/09/07 03:23:05;;;;;;;;;;;17.30;99.90;;;;;;4913726;29;19922;-75
2022/09/07 03:25:31;;;;;;;;;;;17.30;99.90;;;;;;4908013;29;19966;-74
2022/09/07 03:27:56;;;;;;;;;;;17.20;99.90;;;;;;4909886;29;20010;-75
2022/09/07 03:30:22;;;;;;;;;;;17.20;99.90;;;;;;4919098;29;19918;-75
2022/09/07 03:32:47;;;;;;;;;;;17.20;99.90;;;;;;4904933;29;19937;-72
2022/09/07 03:35:13;;;;;;;;;;;17.20;99.90;;;;;;4905804;29;20155;-76
2022/09/07 03:37:38;;;;;;;;;;;17.20;99.90;;;;;;4922036;29;20021;-76
2022/09/07 03:40:05;;;;;;;;;;;17.20;99.90;;;;;;4904699;29;20049;-76
2022/09/07 03:42:31;;;;;;;;;;;17.00;99.90;;;;;;4904441;29;20355;-72
2022/09/07 03:44:56;;;;;;;;;;;16.80;99.90;;;;;;4923510;29;20174;-75
2022/09/07 03:47:22;;;;;;;;;;;16.50;99.90;;;;;;4923751;29;19930;-75
2022/09/07 03:49:49;;;;;;;;;;;16.30;99.90;;;;;;4923687;29;19925;-75
2022/09/07 03:52:14;;;;;;;;;;;16.10;99.90;;;;;;4923459;29;19933;-73
2022/09/07 03:54:40;;;;;;;;;;;15.80;99.90;;;;;;4922219;29;19919;-72
2022/09/07 03:57:06;;;;;;;;;;;15.60;99.90;;;;;;4923042;29;19919;-75
2022/09/07 03:59:31;;;;;;;;;;;15.50;99.90;;;;;;4922501;29;19930;-75
2022/09/07 04:01:57;;;;;;;;;;;15.40;99.90;;;;;;4922814;29;20275;-74
2022/09/07 04:04:22;;;;;;;;;;;15.40;99.90;;;;;;4919496;29;19919;-72
2022/09/07 04:06:48;;;;;;;;;;;15.30;99.90;;;;;;4922065;29;19955;-73
2022/09/07 04:09:13;;;;;;;;;;;15.30;99.90;;;;;;4906003;29;20034;-71
2022/09/07 04:11:39;;;;;;;;;;;15.20;99.90;;;;;;4923670;29;19954;-71
2022/09/07 04:14:05;;;;;;;;;;;15.20;99.90;;;;;;4924193;29;19974;-73
2022/09/07 04:16:31;;;;;;;;;;;15.20;99.90;;;;;;4921420;29;19918;-71
2022/09/07 04:18:57;;;;;;;;;;;15.10;99.90;;;;;;4910745;29;19919;-72
2022/09/07 04:21:24;;;;;;;;;;;15.10;99.90;;;;;;4919230;29;20453;-72
2022/09/07 04:23:49;;;;;;;;;;;15.10;99.90;;;;;;4919925;29;19951;-74
2022/09/07 04:26:16;;;;;;;;;;;15.10;99.90;;;;;;4921137;29;19922;-75
2022/09/07 04:28:42;;;;;;;;;;;15.10;99.90;;;;;;4906369;29;19915;-75
2022/09/07 04:31:08;;;;;;;;;;;15.00;99.90;;;;;;4921568;29;19925;-74
2022/09/07 04:33:33;;;;;;;;;;;15.00;99.90;;;;;;4902948;29;20259;-75
2022/09/07 04:35:59;;;;;;;;;;;15.00;99.90;;;;;;4919008;29;19997;-74
2022/09/07 04:38:25;;;;;;;;;;;15.00;99.90;;;;;;4921742;29;19926;-75
2022/09/07 04:40:57;;;;;;;;;;;15.00;99.90;;;;;;4921274;29;20111;-74
2022/09/07 04:43:22;;;;;;;;;;;14.90;99.90;;;;;;4904000;29;19919;-72
2022/09/07 04:45:48;;;;;;;;;;;14.90;99.90;;;;;;4915219;29;19929;-75
2022/09/07 04:48:13;;;;;;;;;;;14.80;99.90;;;;;;4922220;29;19938;-75
2022/09/07 04:50:39;;;;;;;;;;;14.70;99.90;;;;;;4920660;29;20182;-74
2022/09/07 04:53:04;;;;;;;;;;;14.70;99.90;;;;;;4922859;29;20025;-74
2022/09/07 04:55:30;;;;;;;;;;;14.60;99.90;;;;;;4922120;29;20287;-75
2022/09/07 04:57:55;;;;;;;;;;;14.50;99.90;;;;;;4921767;29;19919;-75
2022/09/07 05:00:21;;;;;;;;;;;14.40;99.90;;;;;;4920585;29;19919;-75
2022/09/07 05:02:46;;;;;;;;;;;14.30;99.90;;;;;;4919359;29;19923;-75
2022/09/07 05:05:12;;;;;;;;;;;14.20;99.90;;;;;;4916924;29;19922;-75
2022/09/07 05:07:38;;;;;;;;;;;14.20;99.90;;;;;;4918374;29;19926;-75
2022/09/07 05:10:03;;;;;;;;;;;14.10;99.90;;;;;;4916571;29;19914;-73
2022/09/07 05:12:29;;;;;;;;;;;14.10;99.90;;;;;;4919761;29;19919;-74
2022/09/07 05:14:54;;;;;;;;;;;14.10;99.90;;;;;;4922230;29;19915;-75
2022/09/07 05:17:20;;;;;;;;;;;14.20;99.90;;;;;;4923047;29;20101;-74
2022/09/07 05:19:46;;;;;;;;;;;14.30;99.90;;;;;;4903582;29;19974;-75
2022/09/07 05:22:12;;;;;;;;;;;14.30;99.90;;;;;;4918329;29;19960;-75
2022/09/07 05:24:37;;;;;;;;;;;14.30;99.90;;;;;;4919698;29;20309;-75
2022/09/07 05:27:03;;;;;;;;;;;14.30;99.90;;;;;;4918479;29;19957;-75
2022/09/07 05:29:29;;;;;;;;;;;14.20;99.90;;;;;;4918617;29;20010;-75
2022/09/07 05:31:55;;;;;;;;;;;14.20;99.90;;;;;;4901253;29;20038;-75
2022/09/07 05:34:21;;;;;;;;;;;14.20;99.90;;;;;;4899904;29;20320;-75
2022/09/07 05:36:46;;;;;;;;;;;14.30;99.90;;;;;;4919869;29;19929;-75
2022/09/07 05:39:11;;;;;;;;;;;14.30;99.90;;;;;;4913565;29;19915;-76
2022/09/07 05:41:37;;;;;;;;;;;14.40;99.90;;;;;;4907107;29;20491;-75
2022/09/07 05:44:03;;;;;;;;;;;14.40;99.90;;;;;;4921445;29;20074;-75
2022/09/07 05:46:28;;;;;;;;;;;14.40;99.90;;;;;;4919775;29;20383;-75
2022/09/07 05:48:54;;;;;;;;;;;14.40;99.90;;;;;;4918910;29;19946;-75
2022/09/07 05:51:19;;;;;;;;;;;14.50;99.90;;;;;;4920657;29;19927;-75
2022/09/07 05:53:46;;;;;;;;;;;14.50;99.90;;;;;;4919934;29;19918;-75
2022/09/07 05:56:11;;;;;;;;;;;14.50;99.90;;;;;;4920559;29;20017;-75
2022/09/07 05:58:37;;;;;;;;;;;14.50;99.90;;;;;;4917612;29;20328;-75
2022/09/07 06:01:05;;;;;;;;;;;14.50;99.90;;;;;;4917867;29;19919;-75
2022/09/07 06:03:31;;;;;;;;;;;14.50;99.90;;;;;;4919318;29;19919;-75
2022/09/07 06:06:03;;;;;;;;;;;14.60;99.90;;;;;;4917334;29;20010;-75
2022/09/07 06:08:30;;;;;;;;;;;14.60;99.90;;;;;;4916652;29;20347;-75
2022/09/07 06:10:55;;;;;;;;;;;14.70;99.90;;;;;;4916405;29;20374;-76
2022/09/07 06:13:21;;;;;;;;;;;14.70;99.90;;;;;;4921290;29;20048;-75
2022/09/07 06:15:46;;;;;;;;;;;14.70;99.90;;;;;;4901873;29;20035;-75
2022/09/07 06:18:12;;;;;;;;;;;14.60;99.90;;;;;;4916643;29;19923;-75
2022/09/07 06:20:37;;;;;;;;;;;14.60;99.90;;;;;;4894802;29;20306;-74
2022/09/07 06:23:03;;;;;;;;;;;14.60;99.90;;;;;;4905116;29;20034;-75
2022/09/07 06:25:28;;;;;;;;;;;14.50;99.90;;;;;;4901823;29;20059;-75
2022/09/07 06:27:54;;;;;;;;;;;14.50;99.90;;;;;;4918751;29;19966;-75
2022/09/07 06:30:20;;;;;;;;;;;14.50;99.90;;;;;;4909507;29;20031;-75
2022/09/07 06:32:46;;;;;;;;;;;14.50;99.90;;;;;;4907816;29;19941;-75
2022/09/07 06:35:12;;;;;;;;;;;14.60;99.90;;;;;;4912643;29;20310;-74
2022/09/07 06:37:37;;;;;;;;;;;14.90;99.90;;;;;;4900299;29;20074;-75
2022/09/07 06:40:03;;;;;;;;;;;15.00;99.90;;;;;;4889709;29;19919;-75
2022/09/07 06:42:28;;;;;;;;;;;15.20;99.90;;;;;;4903099;29;20001;-74
2022/09/07 06:44:54;;;;;;;;;;;15.30;99.90;;;;;;4906862;29;19923;-75
2022/09/07 06:47:19;;;;;;;;;;;15.30;99.90;;;;;;4906379;29;19930;-75
2022/09/07 06:49:45;;;;;;;;;;;15.40;99.90;;;;;;4909264;29;20653;-75
2022/09/07 06:52:10;;;;;;;;;;;15.50;99.90;;;;;;4905275;29;19969;-75
2022/09/07 06:54:36;;;;;;;;;;;15.70;99.90;;;;;;4905144;29;20114;-75
2022/09/07 06:57:07;;;;;;;;;;;15.70;99.90;;;;;;4904218;29;20602;-75
2022/09/07 06:59:36;;;;;;;;;;;16.00;99.90;;;;;;4902551;29;19919;-75
2022/09/07 07:02:02;;;;;;;;;;;16.30;99.90;;;;;;4902919;29;20360;-75
2022/09/07 07:04:28;;;;;;;;;;;16.40;99.90;;;;;;4891060;29;19966;-75
2022/09/07 07:06:53;;;;;;;;;;;16.70;99.90;;;;;;4905015;29;20481;-74
2022/09/07 07:09:19;;;;;;;;;;;17.10;99.90;;;;;;4913499;29;20061;-75
2022/09/07 07:11:46;;;;;;;;;;;17.20;99.90;;;;;;4919372;29;19918;-74
2022/09/07 07:14:14;;;;;;;;;;;17.30;99.90;;;;;;4923400;29;20331;-75
2022/09/07 07:16:40;;;;;;;;;;;17.40;99.90;;;;;;4923907;29;19929;-75
2022/09/07 07:19:06;;;;;;;;;;;17.60;99.90;;;;;;4904170;29;19919;-75
2022/09/07 07:21:31;;;;;;;;;;;18.00;99.90;;;;;;4922121;29;20119;-75
2022/09/07 07:23:57;;;;;;;;;;;18.10;99.90;;;;;;4921736;29;19938;-75
2022/09/07 07:26:25;;;;;;;;;;;18.30;99.90;;;;;;4921638;29;19927;-74
2022/09/07 07:28:52;;;;;;;;;;;18.40;99.90;;;;;;4903773;29;20342;-76
2022/09/07 07:31:18;;;;;;;;;;;18.30;99.90;;;;;;4920789;29;20354;-75
2022/09/07 07:33:45;;;;;;;;;;;18.10;99.90;;;;;;4919983;29;19919;-79
2022/09/07 07:36:20;;;;;;;;;;;18.10;99.90;;;;;;4922307;29;19929;-77
2022/09/07 07:38:47;;;;;;;;;;;18.30;99.90;;;;;;4917602;29;20544;-75
2022/09/07 07:41:13;;;;;;;;;;;18.40;99.90;;;;;;4917410;29;19918;-77
2022/09/07 07:43:38;;;;;;;;;;;18.60;99.90;;;;;;4923396;29;19966;-77
2022/09/07 07:46:04;;;;;;;;;;;19.10;99.90;;;;;;4922409;29;20001;-76
2022/09/07 07:48:30;;;;;;;;;;;20.80;99.90;;;;;;4916757;29;19926;-77
2022/09/07 07:50:59;;;;;;;;;;;23.30;99.90;;;;;;4919497;29;20259;-75
2022/09/07 07:53:27;;;;;;;;;;;26.40;99.90;;;;;;4918560;29;20203;-76
2022/09/07 07:55:52;;;;;;;;;;;27.10;99.90;;;;;;4917888;29;19923;-75
2022/09/07 07:58:18;;;;;;;;;;;26.30;99.90;;;;;;4918366;29;19926;-76
2022/09/07 08:00:44;;;;;;;;;;;25.30;99.90;;;;;;4930582;29;19923;-76
2022/09/07 08:03:10;;;;;;;;;;;24.30;99.90;;;;;;4938654;29;19997;-76
2022/09/07 08:05:36;;;;;;;;;;;23.70;99.90;;;;;;4925878;29;19929;-77
2022/09/07 08:08:01;;;;;;;;;;;23.20;99.90;;;;;;4921379;29;19930;-77
2022/09/07 08:10:28;;;;;;;;;;;22.60;99.90;;;;;;4917468;29;19923;-76
2022/09/07 08:12:54;;;;;;;;;;;22.00;99.90;;;;;;4885361;29;20127;-75
2022/09/07 08:15:19;;;;;;;;;;;21.60;99.90;;;;;;4914073;29;19919;-74
2022/09/07 08:17:48;;;;;;;;;;;21.40;99.90;;;;;;4918445;29;19998;-74
2022/09/07 08:20:14;;;;;;;;;;;21.00;99.90;;;;;;4917284;29;20009;-75
2022/09/07 08:22:40;;;;;;;;;;;20.70;99.90;;;;;;4917840;29;19918;-75
2022/09/07 08:25:06;;;;;;;;;;;20.50;99.90;;;;;;4917103;29;19922;-75
2022/09/07 08:27:32;;;;;;;;;;;20.10;99.90;;;;;;4916869;29;19926;-75
2022/09/07 08:29:58;;;;;;;;;;;20.70;99.90;;;;;;4912991;29;20339;-74
2022/09/07 08:32:25;;;;;;;;;;;22.00;99.90;;;;;;4917781;29;19930;-75
2022/09/07 08:34:50;;;;;;;;;;;23.40;99.90;;;;;;4919405;29;20018;-75
2022/09/07 08:37:16;;;;;;;;;;;24.70;99.90;;;;;;4918775;29;19919;-75
2022/09/07 08:39:42;;;;;;;;;;;24.00;99.90;;;;;;4923958;29;20034;-76
2022/09/07 08:42:13;;;;;;;;;;;23.70;99.90;;;;;;4918521;29;20470;-75
2022/09/07 08:44:47;;;;;;;;;;;23.40;99.90;;;;;;4917601;29;20374;-76
2022/09/07 08:47:27;;;;;;;;;;;23.40;99.90;;;;;;4900474;29;19926;-75
2022/09/07 08:50:05;;;;;;;;;;;25.50;99.90;;;;;;4922482;29;19915;-75
2022/09/07 08:52:39;;;;;;;;;;;27.40;99.90;;;;;;4903796;29;19967;-75
2022/09/07 08:55:26;;;;;;;;;;;27.40;99.90;;;;;;4927105;29;20181;-76
2022/09/07 08:58:12;;;;;;;;;;;29.30;99.90;;;;;;4923857;29;20026;-73
2022/09/07 09:00:38;;;;;;;;;;;31.30;98.90;;;;;;4885187;29;20006;-73
2022/09/07 09:03:07;;;;;;;;;;;29.80;95.50;;;;;;4921194;29;20080;-73
2022/09/07 09:05:32;;;;;;;;;;;27.40;98.50;;;;;;4925515;29;20391;-74
2022/09/07 09:08:17;;;;;;;;;;;24.90;99.90;;;;;;4916924;29;19947;-75
2022/09/07 09:10:55;;;;;;;;;;;23.10;99.90;;;;;;4920785;29;19919;-75
2022/09/07 09:13:39;;;;;;;;;;;21.80;99.90;;;;;;4921082;29;19918;-75
2022/09/07 09:16:12;;;;;;;;;;;21.10;99.90;;;;;;4920710;29;19930;-75
2022/09/07 09:18:57;;;;;;;;;;;20.60;99.90;;;;;;4914983;29;19922;-75
2022/09/07 09:21:25;;;;;;;;;;;20.20;99.90;;;;;;4914697;29;19919;-74
2022/09/07 09:23:52;;;;;;;;;;;20.60;99.90;;;;;;4919648;29;20360;-75
2022/09/07 09:26:28;;;;;;;;;;;20.90;99.90;;;;;;4915520;29;19937;-75
2022/09/07 09:28:54;;;;;;;;;;;21.10;99.90;;;;;;4912514;29;19926;-80
2022/09/07 09:31:20;;;;;;;;;;;22.10;99.90;;;;;;4920487;29;19918;-76
2022/09/07 09:34:04;;;;;;;;;;;24.20;99.90;;;;;;4900919;29;19955;-76
2022/09/07 09:36:34;;;;;;;;;;;25.60;99.90;;;;;;4907092;29;19919;-76
2022/09/07 09:39:00;;;;;;;;;;;26.50;99.90;;;;;;4911329;29;19919;-76
2022/09/07 09:41:34;;;;;;;;;;;25.40;99.90;;;;;;4914382;29;19919;-76
2022/09/07 09:44:02;;;;;;;;;;;24.20;99.90;;;;;;4893161;29;20298;-76
2022/09/07 09:46:30;;;;;;;;;;;23.20;99.90;;;;;;4906468;29;20083;-77
2022/09/07 09:49:11;;;;;;;;;;;24.00;99.90;;;;;;4914931;29;19919;-77
2022/09/07 09:51:40;;;;;;;;;;;26.30;99.90;;;;;;4915827;29;19970;-75
2022/09/07 09:54:17;;;;;;;;;;;28.10;99.90;;;;;;4920377;29;20402;-73
2022/09/07 09:56:44;;;;;;;;;;;27.70;99.50;;;;;;4902428;29;19961;-73
2022/09/07 09:59:21;;;;;;;;;;;26.50;99.90;;;;;;4919769;29;19929;-75
2022/09/07 10:01:47;;;;;;;;;;;26.20;99.90;;;;;;4935732;29;19918;-78
2022/09/07 10:04:22;;;;;;;;;;;26.00;99.90;;;;;;4938914;29;20158;-75
2022/09/07 10:07:00;;;;;;;;;;;26.40;99.90;;;;;;4920714;29;19931;-80
2022/09/07 10:09:35;;;;;;;;;;;26.70;99.90;;;;;;4924594;29;19915;-77
2022/09/07 10:12:02;;;;;;;;;;;26.80;99.50;;;;;;4926429;29;19946;-74
2022/09/07 10:14:32;;;;;;;;;;;26.30;99.90;;;;;;4920770;29;20362;-75
2022/09/07 10:16:59;;;;;;;;;;;25.80;99.90;;;;;;4905443;29;20204;-76
2022/09/07 10:19:27;;;;;;;;;;;24.80;99.90;;;;;;4913326;29;19970;-74
2022/09/07 10:21:57;;;;;;;;;;;23.70;99.90;;;;;;4913046;29;19935;-74
2022/09/07 10:24:26;;;;;;;;;;;22.80;99.90;;;;;;4916385;29;19989;-75
2022/09/07 10:26:52;;;;;;;;;;;22.00;99.90;;;;;;4898125;29;20335;-74
2022/09/07 10:29:18;;;;;;;;;;;21.40;99.90;;;;;;4916711;29;19923;-77
2022/09/07 10:32:02;;;;;;;;;;;21.00;99.90;;;;;;4916748;29;20013;-75
2022/09/07 10:34:50;;;;;;;;;;;21.20;99.90;;;;;;4912756;29;20289;-73
2022/09/07 10:37:36;;;;;;;;;;;22.10;99.90;;;;;;4913145;29;19930;-74
2022/09/07 10:40:09;;;;;;;;;;;24.10;99.90;;;;;;4916493;29;19918;-74
2022/09/07 10:42:39;;;;;;;;;;;26.00;99.90;;;;;;4916977;29;19929;-74
2022/09/07 10:45:04;;;;;;;;;;;27.60;99.90;;;;;;4918537;29;20018;-76
2022/09/07 10:47:33;;;;;;;;;;;28.40;99.90;;;;;;4922053;29;20013;-74
2022/09/07 10:50:06;;;;;;;;;;;28.00;99.90;;;;;;4921856;29;19919;-77
2022/09/07 10:52:34;;;;;;;;;;;27.40;97.40;;;;;;4908882;29;19937;-74
2022/09/07 10:55:08;;;;;;;;;;;26.70;99.90;;;;;;4923082;29;20310;-74
2022/09/07 10:57:55;;;;;;;;;;;26.70;99.90;;;;;;4926225;29;20275;-74
2022/09/07 11:00:21;;;;;;;;;;;26.60;99.90;;;;;;4917777;29;20710;-74
2022/09/07 11:02:49;;;;;;;;;;;26.50;99.90;;;;;;4922600;29;20301;-74
2022/09/07 11:05:24;;;;;;;;;;;26.60;99.90;;;;;;4907012;29;19969;-74
2022/09/07 11:08:00;;;;;;;;;;;26.70;99.90;;;;;;4924176;29;19931;-76
2022/09/07 11:10:35;;;;;;;;;;;25.90;99.90;;;;;;4923606;29;19919;-74
2022/09/07 11:13:03;;;;;;;;;;;24.70;99.90;;;;;;4925269;29;19918;-75
2022/09/07 11:15:34;;;;;;;;;;;23.80;99.90;;;;;;4924375;29;19922;-73
2022/09/07 11:18:02;;;;;;;;;;;23.60;99.90;;;;;;4916707;29;19919;-75
2022/09/07 11:20:34;;;;;;;;;;;23.20;99.90;;;;;;4943486;29;19933;-75
2022/09/07 11:23:18;;;;;;;;;;;23.90;99.90;;;;;;4932309;29;19925;-74
2022/09/07 11:25:53;;;;;;;;;;;24.60;99.90;;;;;;4913678;29;20433;-75
2022/09/07 11:28:24;;;;;;;;;;;24.50;99.90;;;;;;4911664;29;19914;-74
2022/09/07 11:30:53;;;;;;;;;;;24.20;99.90;;;;;;4924145;29;20426;-74
2022/09/07 11:33:33;;;;;;;;;;;24.50;99.90;;;;;;4904451;29;19923;-74
2022/09/07 11:36:00;;;;;;;;;;;24.80;99.90;;;;;;4918904;29;19923;-75
2022/09/07 11:38:42;;;;;;;;;;;25.30;99.90;;;;;;4899687;29;20320;-74
2022/09/07 11:41:26;;;;;;;;;;;25.60;99.90;;;;;;4917891;29;20130;-74
2022/09/07 11:43:54;;;;;;;;;;;25.00;99.90;;;;;;4917815;29;19919;-74
2022/09/07 11:46:39;;;;;;;;;;;24.50;99.90;;;;;;4917078;29;20017;-73
2022/09/07 11:49:18;;;;;;;;;;;24.20;99.90;;;;;;4898429;29;19918;-73
2022/09/07 11:51:49;;;;;;;;;;;24.00;99.90;;;;;;4914849;29;20438;-73
2022/09/07 11:54:22;;;;;;;;;;;24.10;99.90;;;;;;4913962;29;19919;-73
2022/09/07 11:56:55;;;;;;;;;;;24.40;99.90;;;;;;4909038;29;20176;-73
2022/09/07 11:59:27;;;;;;;;;;;24.90;99.90;;;;;;4917674;29;20199;-73
2022/09/07 12:02:10;;;;;;;;;;;24.90;99.90;;;;;;4916752;29;20311;-74
2022/09/07 12:04:41;;;;;;;;;;;25.10;99.90;;;;;;4922624;29;20024;-73
2022/09/07 12:07:10;;;;;;;;;;;25.10;99.90;;;;;;4923876;29;19946;-74
2022/09/07 12:09:38;;;;;;;;;;;25.30;99.90;;;;;;4929483;29;20366;-73
2022/09/07 12:12:10;;;;;;;;;;;25.40;99.90;;;;;;4938337;29;19914;-73
2022/09/07 12:14:42;;;;;;;;;;;25.20;99.90;;;;;;4934561;29;19926;-73
2022/09/07 12:17:27;;;;;;;;;;;24.90;99.90;;;;;;4924321;29;20020;-74
2022/09/07 12:20:12;;;;;;;;;;;24.70;99.90;;;;;;4912874;29;20247;-73
2022/09/07 12:22:53;;;;;;;;;;;24.10;99.90;;;;;;4922738;29;19926;-74
2022/09/07 12:25:19;;;;;;;;;;;23.90;99.90;;;;;;4917863;29;19925;-77
2022/09/07 12:27:44;;;;;;;;;;;23.80;99.90;;;;;;4904696;29;19927;-74
2022/09/07 12:30:10;;;;;;;;;;;23.70;99.90;;;;;;4915209;29;19936;-74
2022/09/07 12:32:42;;;;;;;;;;;23.30;99.90;;;;;;4924698;29;19970;-75
2022/09/07 12:35:27;;;;;;;;;;;23.00;99.90;;;;;;4907672;29;19919;-75
2022/09/07 12:37:56;;;;;;;;;;;23.40;99.90;;;;;;4919068;29;19919;-76
2022/09/07 12:40:28;;;;;;;;;;;23.90;99.90;;;;;;4919741;29;20290;-75
2022/09/07 12:43:15;;;;;;;;;;;24.50;99.90;;;;;;4921951;29;19918;-78
2022/09/07 12:45:43;;;;;;;;;;;24.50;99.90;;;;;;4896897;29;19919;-78
2022/09/07 12:48:15;;;;;;;;;;;24.00;99.90;;;;;;4903466;29;19922;-72
2022/09/07 12:50:57;;;;;;;;;;;23.60;99.90;;;;;;4922591;29;19926;-77
2022/09/07 12:53:29;;;;;;;;;;;23.80;99.90;;;;;;4918190;29;20167;-72
2022/09/07 12:56:13;;;;;;;;;;;24.00;99.90;;;;;;4920300;29;19919;-73
2022/09/07 12:58:51;;;;;;;;;;;24.40;99.90;;;;;;4922284;29;20192;-73
2022/09/07 13:01:25;;;;;;;;;;;24.60;99.90;;;;;;4920637;29;19962;-75
2022/09/07 13:04:10;;;;;;;;;;;24.60;99.90;;;;;;4918973;29;19990;-73
2022/09/07 13:06:42;;;;;;;;;;;24.30;99.90;;;;;;4919513;29;20343;-73
2022/09/07 13:09:20;;;;;;;;;;;24.30;99.90;;;;;;4918420;29;20259;-72
2022/09/07 13:11:45;;;;;;;;;;;24.30;99.90;;;;;;4917906;29;20059;-72
2022/09/07 13:14:14;;;;;;;;;;;24.30;99.90;;;;;;4919007;29;20319;-73
2022/09/07 13:16:40;;;;;;;;;;;24.10;99.90;;;;;;4917260;29;19919;-73
2022/09/07 13:19:11;;;;;;;;;;;23.90;99.90;;;;;;4894355;29;19930;-72
2022/09/07 13:21:52;;;;;;;;;;;23.80;99.90;;;;;;4908738;29;19926;-73
2022/09/07 13:24:18;;;;;;;;;;;23.80;99.90;;;;;;4917081;29;19965;-72
2022/09/07 13:27:02;;;;;;;;;;;23.80;99.90;;;;;;4908952;29;20443;-72
2022/09/07 13:29:42;;;;;;;;;;;23.40;99.90;;;;;;4911422;29;19969;-72
2022/09/07 13:32:17;;;;;;;;;;;23.00;99.90;;;;;;4911827;29;20018;-72
2022/09/07 13:35:04;;;;;;;;;;;23.00;99.90;;;;;;4913461;29;20029;-72
2022/09/07 13:37:56;;;;;;;;;;;23.00;99.90;;;;;;4911960;29;19926;-72
2022/09/07 13:40:33;;;;;;;;;;;23.50;99.90;;;;;;4887886;29;19926;-72
2022/09/07 13:42:59;;;;;;;;;;;23.30;99.90;;;;;;4920339;29;20502;-68
2022/09/07 13:45:44;;;;;;;;;;;24.00;99.90;;;;;;4913575;29;19934;-82
2022/09/07 13:48:28;;;;;;;;;;;24.40;99.90;;;;;;4918152;29;20030;-72
2022/09/07 13:50:57;;;;;;;;;;;25.00;99.90;;;;;;4920245;29;19927;-76
2022/09/07 13:53:31;;;;;;;;;;;24.70;99.90;;;;;;4915497;29;20174;-74
2022/09/07 13:55:59;;;;;;;;;;;23.80;99.90;;;;;;4916843;29;19918;-75
2022/09/07 13:58:32;;;;;;;;;;;23.10;99.90;;;;;;4921069;29;19941;-74
2022/09/07 14:01:05;;;;;;;;;;;22.60;99.90;;;;;;4916562;29;20464;-74
2022/09/07 14:03:39;;;;;;;;;;;22.30;99.90;;;;;;4926243;29;19961;-74
2022/09/07 14:06:13;;;;;;;;;;;22.50;99.90;;;;;;4917789;29;20373;-75
2022/09/07 14:08:39;;;;;;;;;;;22.70;99.90;;;;;;4929095;29;19926;-74
2022/09/07 14:11:15;;;;;;;;;;;23.00;99.90;;;;;;4907068;29;20377;-75
2022/09/07 14:13:41;;;;;;;;;;;23.10;99.90;;;;;;4921774;29;19926;-75
2022/09/07 14:16:07;;;;;;;;;;;23.20;99.90;;;;;;4931399;29;19918;-74
2022/09/07 14:18:33;;;;;;;;;;;23.30;99.90;;;;;;4917154;29;19914;-75
2022/09/07 14:20:58;;;;;;;;;;;23.40;99.90;;;;;;4917280;29;19972;-74
2022/09/07 14:23:33;;;;;;;;;;;23.30;99.90;;;;;;4912514;29;20446;-73
2022/09/07 14:26:31;;;;;;;;;;;23.00;99.90;;;;;;4896555;29;20011;-74
2022/09/07 14:28:57;;;;;;;;;;;22.60;99.90;;;;;;4880200;29;20458;-76
2022/09/07 14:31:23;;;;;;;;;;;22.40;99.90;;;;;;4915103;29;19926;-74